Aloha, Washington
Current Conditions -  °F | °C
As of 11:10 AM on Sunday 23 Nov 2014 (Local Time) from KHQM Reporting Station
Haze Haze  
Wind Chill: 52°   Ceiling: 2200
Heat Index: 52°   Visibility: 4mi
Dew Point: 50°   Wind: 8mph
Humidity: 93%   Direction: 250°WSW
Pressure: 30.17"   Gusts: NA
Location:  47.1899°N, 124.112°W
Report Text: KHQM 231910Z AUTO 25007KT 4SM BR BKN022 BKN035 OVC050 11/10 A3017 RMK AO2 T01110100
Loading
Personal Weather Stations






























Interactive Weather Map New forecast layout! Learn more

10-Day Weather Forecast

Advertisements
Track Severe Weather on mobile